sensor_id;sensor_type;location;lat;lon;timestamp;P1;durP1;ratioP1;P2;durP2;ratioP2
5752;SDS011;2901;42.140;24.760;2022-08-19T00:01:49;7.55;;;5.82;;
5752;SDS011;2901;42.140;24.760;2022-08-19T00:04:17;6.38;;;5.35;;
5752;SDS011;2901;42.140;24.760;2022-08-19T00:06:44;6.78;;;6.18;;
5752;SDS011;2901;42.140;24.760;2022-08-19T00:09:13;6.95;;;6.00;;
5752;SDS011;2901;42.140;24.760;2022-08-19T00:11:40;5.85;;;5.38;;
5752;SDS011;2901;42.140;24.760;2022-08-19T00:14:07;5.70;;;5.45;;
5752;SDS011;2901;42.140;24.760;2022-08-19T00:16:34;6.93;;;4.90;;
5752;SDS011;2901;42.140;24.760;2022-08-19T00:19:01;4.97;;;4.68;;
5752;SDS011;2901;42.140;24.760;2022-08-19T00:21:26;7.18;;;5.57;;
5752;SDS011;2901;42.140;24.760;2022-08-19T00:23:52;6.65;;;5.50;;
5752;SDS011;2901;42.140;24.760;2022-08-19T00:26:18;5.65;;;5.20;;
5752;SDS011;2901;42.140;24.760;2022-08-19T00:28:44;4.95;;;4.70;;
5752;SDS011;2901;42.140;24.760;2022-08-19T00:31:09;4.72;;;4.43;;
5752;SDS011;2901;42.140;24.760;2022-08-19T00:33:35;6.72;;;6.05;;
5752;SDS011;2901;42.140;24.760;2022-08-19T00:36:03;5.95;;;5.03;;
5752;SDS011;2901;42.140;24.760;2022-08-19T00:38:31;5.53;;;4.60;;
5752;SDS011;2901;42.140;24.760;2022-08-19T00:40:57;7.15;;;5.53;;
5752;SDS011;2901;42.140;24.760;2022-08-19T00:43:24;6.03;;;5.50;;
5752;SDS011;2901;42.140;24.760;2022-08-19T00:45:51;5.97;;;5.32;;
5752;SDS011;2901;42.140;24.760;2022-08-19T00:48:17;6.28;;;5.82;;
5752;SDS011;2901;42.140;24.760;2022-08-19T00:50:44;7.05;;;6.38;;
5752;SDS011;2901;42.140;24.760;2022-08-19T00:53:13;7.43;;;6.80;;
5752;SDS011;2901;42.140;24.760;2022-08-19T00:55:40;8.18;;;6.95;;
5752;SDS011;2901;42.140;24.760;2022-08-19T00:58:10;7.15;;;6.75;;
5752;SDS011;2901;42.140;24.760;2022-08-19T01:00:38;7.80;;;7.13;;
5752;SDS011;2901;42.140;24.760;2022-08-19T01:03:08;9.73;;;8.27;;
5752;SDS011;2901;42.140;24.760;2022-08-19T01:05:36;8.23;;;7.43;;
5752;SDS011;2901;42.140;24.760;2022-08-19T01:08:04;8.77;;;7.95;;
5752;SDS011;2901;42.140;24.760;2022-08-19T01:10:33;9.40;;;8.48;;
5752;SDS011;2901;42.140;24.760;2022-08-19T01:13:04;8.20;;;7.57;;
5752;SDS011;2901;42.140;24.760;2022-08-19T01:15:31;12.10;;;8.15;;
5752;SDS011;2901;42.140;24.760;2022-08-19T01:18:04;8.73;;;8.05;;
5752;SDS011;2901;42.140;24.760;2022-08-19T01:20:31;9.43;;;8.40;;
5752;SDS011;2901;42.140;24.760;2022-08-19T01:22:58;8.57;;;7.68;;
5752;SDS011;2901;42.140;24.760;2022-08-19T01:25:24;9.65;;;8.70;;
5752;SDS011;2901;42.140;24.760;2022-08-19T01:27:54;12.10;;;9.13;;
5752;SDS011;2901;42.140;24.760;2022-08-19T01:30:25;8.75;;;7.95;;
5752;SDS011;2901;42.140;24.760;2022-08-19T01:32:54;10.13;;;8.30;;
5752;SDS011;2901;42.140;24.760;2022-08-19T01:35:21;9.52;;;8.45;;
5752;SDS011;2901;42.140;24.760;2022-08-19T01:37:56;12.20;;;8.27;;
5752;SDS011;2901;42.140;24.760;2022-08-19T01:40:27;12.50;;;8.65;;
5752;SDS011;2901;42.140;24.760;2022-08-19T01:42:55;8.70;;;8.02;;
5752;SDS011;2901;42.140;24.760;2022-08-19T01:45:23;9.18;;;8.57;;
5752;SDS011;2901;42.140;24.760;2022-08-19T01:47:50;9.05;;;8.30;;
5752;SDS011;2901;42.140;24.760;2022-08-19T01:50:16;8.43;;;7.78;;
5752;SDS011;2901;42.140;24.760;2022-08-19T01:52:42;9.20;;;8.48;;
5752;SDS011;2901;42.140;24.760;2022-08-19T01:55:10;11.75;;;9.02;;
5752;SDS011;2901;42.140;24.760;2022-08-19T01:57:38;9.23;;;8.43;;
5752;SDS011;2901;42.140;24.760;2022-08-19T02:00:07;11.00;;;8.65;;
5752;SDS011;2901;42.140;24.760;2022-08-19T02:02:35;10.00;;;9.45;;
5752;SDS011;2901;42.140;24.760;2022-08-19T02:05:00;10.55;;;9.45;;
5752;SDS011;2901;42.140;24.760;2022-08-19T02:07:26;11.55;;;9.43;;
5752;SDS011;2901;42.140;24.760;2022-08-19T02:09:53;10.85;;;9.88;;
5752;SDS011;2901;42.140;24.760;2022-08-19T02:12:19;13.13;;;8.98;;
5752;SDS011;2901;42.140;24.760;2022-08-19T02:14:45;11.00;;;10.05;;
5752;SDS011;2901;42.140;24.760;2022-08-19T02:17:11;10.02;;;9.02;;
5752;SDS011;2901;42.140;24.760;2022-08-19T02:19:37;16.60;;;9.80;;
5752;SDS011;2901;42.140;24.760;2022-08-19T02:22:02;14.45;;;8.82;;
5752;SDS011;2901;42.140;24.760;2022-08-19T02:24:28;16.73;;;10.25;;
5752;SDS011;2901;42.140;24.760;2022-08-19T02:26:53;25.25;;;10.48;;
5752;SDS011;2901;42.140;24.760;2022-08-19T02:29:18;10.60;;;8.80;;
5752;SDS011;2901;42.140;24.760;2022-08-19T02:31:44;13.45;;;9.45;;
5752;SDS011;2901;42.140;24.760;2022-08-19T02:34:10;10.25;;;9.07;;
5752;SDS011;2901;42.140;24.760;2022-08-19T02:36:35;14.18;;;9.18;;
5752;SDS011;2901;42.140;24.760;2022-08-19T02:39:01;9.05;;;8.15;;
5752;SDS011;2901;42.140;24.760;2022-08-19T02:41:29;10.23;;;9.52;;
5752;SDS011;2901;42.140;24.760;2022-08-19T02:43:58;13.93;;;9.38;;
5752;SDS011;2901;42.140;24.760;2022-08-19T02:46:27;9.50;;;8.75;;
5752;SDS011;2901;42.140;24.760;2022-08-19T02:48:55;14.52;;;9.77;;
5752;SDS011;2901;42.140;24.760;2022-08-19T02:51:25;14.27;;;9.55;;
5752;SDS011;2901;42.140;24.760;2022-08-19T02:53:54;11.55;;;9.20;;
5752;SDS011;2901;42.140;24.760;2022-08-19T02:56:20;9.45;;;8.65;;
5752;SDS011;2901;42.140;24.760;2022-08-19T02:58:46;10.65;;;8.85;;
5752;SDS011;2901;42.140;24.760;2022-08-19T03:01:19;11.90;;;8.20;;
5752;SDS011;2901;42.140;24.760;2022-08-19T03:03:46;9.25;;;8.35;;
5752;SDS011;2901;42.140;24.760;2022-08-19T03:06:12;10.50;;;9.38;;
5752;SDS011;2901;42.140;24.760;2022-08-19T03:08:43;11.85;;;8.52;;
5752;SDS011;2901;42.140;24.760;2022-08-19T03:11:15;9.07;;;8.45;;
5752;SDS011;2901;42.140;24.760;2022-08-19T03:13:42;10.32;;;8.65;;
5752;SDS011;2901;42.140;24.760;2022-08-19T03:16:08;10.27;;;8.95;;
5752;SDS011;2901;42.140;24.760;2022-08-19T03:18:34;13.25;;;8.13;;
5752;SDS011;2901;42.140;24.760;2022-08-19T03:20:59;11.40;;;7.85;;
5752;SDS011;2901;42.140;24.760;2022-08-19T03:23:25;10.98;;;7.78;;
5752;SDS011;2901;42.140;24.760;2022-08-19T03:25:51;8.13;;;7.32;;
5752;SDS011;2901;42.140;24.760;2022-08-19T03:28:18;10.48;;;7.85;;
5752;SDS011;2901;42.140;24.760;2022-08-19T03:30:54;10.88;;;7.75;;
5752;SDS011;2901;42.140;24.760;2022-08-19T03:33:24;11.00;;;7.47;;
5752;SDS011;2901;42.140;24.760;2022-08-19T03:36:12;8.93;;;7.40;;
5752;SDS011;2901;42.140;24.760;2022-08-19T03:38:42;13.40;;;7.72;;
5752;SDS011;2901;42.140;24.760;2022-08-19T03:41:11;10.98;;;7.90;;
5752;SDS011;2901;42.140;24.760;2022-08-19T03:43:40;8.10;;;7.25;;
5752;SDS011;2901;42.140;24.760;2022-08-19T03:46:07;28.13;;;9.23;;
5752;SDS011;2901;42.140;24.760;2022-08-19T03:48:35;28.35;;;9.70;;
5752;SDS011;2901;42.140;24.760;2022-08-19T03:51:03;14.00;;;8.55;;
5752;SDS011;2901;42.140;24.760;2022-08-19T03:53:30;13.40;;;9.32;;
5752;SDS011;2901;42.140;24.760;2022-08-19T03:55:56;26.92;;;10.00;;
5752;SDS011;2901;42.140;24.760;2022-08-19T03:58:23;12.45;;;8.68;;
5752;SDS011;2901;42.140;24.760;2022-08-19T04:00:48;11.07;;;8.70;;
5752;SDS011;2901;42.140;24.760;2022-08-19T04:03:14;20.60;;;10.30;;
5752;SDS011;2901;42.140;24.760;2022-08-19T04:05:40;24.08;;;10.40;;
5752;SDS011;2901;42.140;24.760;2022-08-19T04:08:05;8.60;;;8.10;;
5752;SDS011;2901;42.140;24.760;2022-08-19T04:10:37;10.68;;;8.43;;
5752;SDS011;2901;42.140;24.760;2022-08-19T04:13:03;24.27;;;10.73;;
5752;SDS011;2901;42.140;24.760;2022-08-19T04:15:31;10.75;;;8.63;;
5752;SDS011;2901;42.140;24.760;2022-08-19T04:18:00;12.82;;;8.25;;
5752;SDS011;2901;42.140;24.760;2022-08-19T04:20:26;20.30;;;9.77;;
5752;SDS011;2901;42.140;24.760;2022-08-19T04:22:52;21.88;;;10.18;;
5752;SDS011;2901;42.140;24.760;2022-08-19T04:25:17;14.90;;;9.63;;
5752;SDS011;2901;42.140;24.760;2022-08-19T04:27:43;25.90;;;11.30;;
5752;SDS011;2901;42.140;24.760;2022-08-19T04:30:11;26.80;;;10.52;;
5752;SDS011;2901;42.140;24.760;2022-08-19T04:32:37;26.95;;;11.07;;
5752;SDS011;2901;42.140;24.760;2022-08-19T04:35:03;30.35;;;11.75;;
5752;SDS011;2901;42.140;24.760;2022-08-19T04:37:29;20.88;;;11.23;;
5752;SDS011;2901;42.140;24.760;2022-08-19T04:39:57;28.35;;;11.65;;
5752;SDS011;2901;42.140;24.760;2022-08-19T04:42:41;26.17;;;11.75;;
5752;SDS011;2901;42.140;24.760;2022-08-19T04:45:10;30.77;;;11.88;;
5752;SDS011;2901;42.140;24.760;2022-08-19T04:47:39;29.42;;;11.13;;
5752;SDS011;2901;42.140;24.760;2022-08-19T04:50:07;22.88;;;10.93;;
5752;SDS011;2901;42.140;24.760;2022-08-19T04:52:34;21.30;;;11.75;;
5752;SDS011;2901;42.140;24.760;2022-08-19T04:54:59;18.80;;;10.98;;
5752;SDS011;2901;42.140;24.760;2022-08-19T04:57:25;22.70;;;10.75;;
5752;SDS011;2901;42.140;24.760;2022-08-19T04:59:54;19.88;;;11.50;;
5752;SDS011;2901;42.140;24.760;2022-08-19T05:02:21;20.25;;;10.93;;
5752;SDS011;2901;42.140;24.760;2022-08-19T05:04:51;24.73;;;11.23;;
5752;SDS011;2901;42.140;24.760;2022-08-19T05:07:21;13.63;;;10.18;;
5752;SDS011;2901;42.140;24.760;2022-08-19T05:09:47;11.55;;;9.57;;
5752;SDS011;2901;42.140;24.760;2022-08-19T05:12:12;15.68;;;9.68;;
5752;SDS011;2901;42.140;24.760;2022-08-19T05:14:37;10.63;;;8.93;;
5752;SDS011;2901;42.140;24.760;2022-08-19T05:17:04;11.38;;;9.73;;
5752;SDS011;2901;42.140;24.760;2022-08-19T05:19:29;16.38;;;9.27;;
5752;SDS011;2901;42.140;24.760;2022-08-19T05:22:13;15.00;;;7.97;;
5752;SDS011;2901;42.140;24.760;2022-08-19T05:24:57;19.77;;;7.72;;
5752;SDS011;2901;42.140;24.760;2022-08-19T05:27:23;9.70;;;7.53;;
5752;SDS011;2901;42.140;24.760;2022-08-19T05:29:48;10.77;;;7.85;;
5752;SDS011;2901;42.140;24.760;2022-08-19T05:32:13;12.38;;;8.13;;
5752;SDS011;2901;42.140;24.760;2022-08-19T05:34:39;7.38;;;6.32;;
5752;SDS011;2901;42.140;24.760;2022-08-19T05:37:05;8.45;;;7.72;;
5752;SDS011;2901;42.140;24.760;2022-08-19T05:39:31;9.32;;;6.32;;
5752;SDS011;2901;42.140;24.760;2022-08-19T05:41:59;20.70;;;6.60;;
5752;SDS011;2901;42.140;24.760;2022-08-19T05:44:29;10.20;;;6.07;;
5752;SDS011;2901;42.140;24.760;2022-08-19T05:46:56;6.13;;;5.82;;
5752;SDS011;2901;42.140;24.760;2022-08-19T05:49:23;5.93;;;5.63;;
5752;SDS011;2901;42.140;24.760;2022-08-19T05:51:50;7.72;;;5.50;;
5752;SDS011;2901;42.140;24.760;2022-08-19T05:54:16;7.40;;;6.70;;
5752;SDS011;2901;42.140;24.760;2022-08-19T05:56:42;9.13;;;6.28;;
5752;SDS011;2901;42.140;24.760;2022-08-19T05:59:09;7.30;;;6.65;;
5752;SDS011;2901;42.140;24.760;2022-08-19T06:01:37;7.53;;;6.97;;
5752;SDS011;2901;42.140;24.760;2022-08-19T06:04:05;7.70;;;7.07;;
5752;SDS011;2901;42.140;24.760;2022-08-19T06:06:31;9.18;;;6.55;;
5752;SDS011;2901;42.140;24.760;2022-08-19T06:08:59;7.30;;;6.78;;
5752;SDS011;2901;42.140;24.760;2022-08-19T06:14:06;7.85;;;6.53;;
5752;SDS011;2901;42.140;24.760;2022-08-19T06:16:35;7.50;;;6.85;;
5752;SDS011;2901;42.140;24.760;2022-08-19T06:19:04;20.25;;;7.03;;
5752;SDS011;2901;42.140;24.760;2022-08-19T06:21:32;8.43;;;7.03;;
5752;SDS011;2901;42.140;24.760;2022-08-19T06:23:59;7.95;;;6.68;;
5752;SDS011;2901;42.140;24.760;2022-08-19T06:26:25;20.60;;;8.00;;
5752;SDS011;2901;42.140;24.760;2022-08-19T06:28:51;16.55;;;7.53;;
5752;SDS011;2901;42.140;24.760;2022-08-19T06:31:18;20.08;;;7.00;;
5752;SDS011;2901;42.140;24.760;2022-08-19T06:33:46;14.98;;;6.88;;
5752;SDS011;2901;42.140;24.760;2022-08-19T06:36:19;7.43;;;6.82;;
5752;SDS011;2901;42.140;24.760;2022-08-19T06:38:47;8.27;;;7.00;;
5752;SDS011;2901;42.140;24.760;2022-08-19T06:41:12;7.60;;;6.90;;
5752;SDS011;2901;42.140;24.760;2022-08-19T06:43:38;8.32;;;6.00;;
5752;SDS011;2901;42.140;24.760;2022-08-19T06:46:09;6.80;;;6.18;;
5752;SDS011;2901;42.140;24.760;2022-08-19T06:48:36;10.52;;;7.13;;
5752;SDS011;2901;42.140;24.760;2022-08-19T06:51:01;9.30;;;6.55;;
5752;SDS011;2901;42.140;24.760;2022-08-19T06:53:28;6.07;;;5.68;;
5752;SDS011;2901;42.140;24.760;2022-08-19T06:55:54;6.35;;;6.05;;
5752;SDS011;2901;42.140;24.760;2022-08-19T06:58:24;6.70;;;6.20;;
5752;SDS011;2901;42.140;24.760;2022-08-19T07:00:50;7.13;;;6.70;;
5752;SDS011;2901;42.140;24.760;2022-08-19T07:03:16;12.95;;;6.20;;
5752;SDS011;2901;42.140;24.760;2022-08-19T07:05:42;7.95;;;5.90;;
5752;SDS011;2901;42.140;24.760;2022-08-19T07:08:08;9.10;;;6.25;;
5752;SDS011;2901;42.140;24.760;2022-08-19T07:10:34;8.52;;;5.78;;
5752;SDS011;2901;42.140;24.760;2022-08-19T07:13:01;8.70;;;5.90;;
5752;SDS011;2901;42.140;24.760;2022-08-19T07:15:27;6.45;;;5.85;;
5752;SDS011;2901;42.140;24.760;2022-08-19T07:17:52;6.53;;;6.03;;
5752;SDS011;2901;42.140;24.760;2022-08-19T07:20:18;6.40;;;5.82;;
5752;SDS011;2901;42.140;24.760;2022-08-19T07:22:43;5.20;;;5.00;;
5752;SDS011;2901;42.140;24.760;2022-08-19T07:25:10;6.47;;;5.38;;
5752;SDS011;2901;42.140;24.760;2022-08-19T07:27:38;5.82;;;5.32;;
5752;SDS011;2901;42.140;24.760;2022-08-19T07:30:03;7.15;;;5.80;;
5752;SDS011;2901;42.140;24.760;2022-08-19T07:32:30;5.97;;;5.57;;
5752;SDS011;2901;42.140;24.760;2022-08-19T07:34:55;5.25;;;4.93;;
5752;SDS011;2901;42.140;24.760;2022-08-19T07:37:21;7.85;;;5.28;;
5752;SDS011;2901;42.140;24.760;2022-08-19T07:39:47;8.32;;;4.82;;
5752;SDS011;2901;42.140;24.760;2022-08-19T07:42:13;6.97;;;5.50;;
5752;SDS011;2901;42.140;24.760;2022-08-19T07:44:38;5.60;;;5.13;;
5752;SDS011;2901;42.140;24.760;2022-08-19T07:47:04;8.23;;;4.90;;
5752;SDS011;2901;42.140;24.760;2022-08-19T07:49:31;8.32;;;4.85;;
5752;SDS011;2901;42.140;24.760;2022-08-19T07:51:59;5.38;;;5.03;;
5752;SDS011;2901;42.140;24.760;2022-08-19T07:54:27;5.82;;;5.43;;
5752;SDS011;2901;42.140;24.760;2022-08-19T07:56:55;5.68;;;5.15;;
5752;SDS011;2901;42.140;24.760;2022-08-19T07:59:21;4.85;;;4.55;;
5752;SDS011;2901;42.140;24.760;2022-08-19T08:01:47;4.95;;;4.57;;
5752;SDS011;2901;42.140;24.760;2022-08-19T08:04:15;4.97;;;4.53;;
5752;SDS011;2901;42.140;24.760;2022-08-19T08:06:59;4.47;;;4.28;;
5752;SDS011;2901;42.140;24.760;2022-08-19T08:09:43;4.95;;;4.53;;
5752;SDS011;2901;42.140;24.760;2022-08-19T08:12:13;4.68;;;4.40;;
5752;SDS011;2901;42.140;24.760;2022-08-19T08:14:46;7.85;;;4.97;;
5752;SDS011;2901;42.140;24.760;2022-08-19T08:17:17;5.85;;;4.50;;
5752;SDS011;2901;42.140;24.760;2022-08-19T08:19:45;5.43;;;4.68;;
5752;SDS011;2901;42.140;24.760;2022-08-19T08:22:14;5.53;;;5.10;;
5752;SDS011;2901;42.140;24.760;2022-08-19T08:27:35;4.90;;;4.50;;
5752;SDS011;2901;42.140;24.760;2022-08-19T08:30:14;8.18;;;5.10;;
5752;SDS011;2901;42.140;24.760;2022-08-19T08:32:48;5.43;;;4.68;;
5752;SDS011;2901;42.140;24.760;2022-08-19T08:35:15;5.30;;;4.78;;
5752;SDS011;2901;42.140;24.760;2022-08-19T08:37:48;4.80;;;4.60;;
5752;SDS011;2901;42.140;24.760;2022-08-19T08:40:22;5.18;;;4.78;;
5752;SDS011;2901;42.140;24.760;2022-08-19T08:43:18;4.40;;;4.20;;
5752;SDS011;2901;42.140;24.760;2022-08-19T08:46:05;5.45;;;5.05;;
5752;SDS011;2901;42.140;24.760;2022-08-19T08:51:29;5.60;;;4.03;;
5752;SDS011;2901;42.140;24.760;2022-08-19T08:53:59;5.05;;;4.25;;
5752;SDS011;2901;42.140;24.760;2022-08-19T08:56:26;4.80;;;4.50;;
5752;SDS011;2901;42.140;24.760;2022-08-19T08:59:12;4.63;;;4.28;;
5752;SDS011;2901;42.140;24.760;2022-08-19T09:02:01;4.13;;;3.95;;
5752;SDS011;2901;42.140;24.760;2022-08-19T09:04:27;6.57;;;4.93;;
5752;SDS011;2901;42.140;24.760;2022-08-19T09:09:57;4.68;;;4.32;;
5752;SDS011;2901;42.140;24.760;2022-08-19T09:15:09;5.47;;;3.97;;
5752;SDS011;2901;42.140;24.760;2022-08-19T09:17:37;5.43;;;5.13;;
5752;SDS011;2901;42.140;24.760;2022-08-19T09:20:24;7.55;;;4.85;;
5752;SDS011;2901;42.140;24.760;2022-08-19T09:22:49;5.10;;;4.80;;
5752;SDS011;2901;42.140;24.760;2022-08-19T09:25:16;6.20;;;5.55;;
5752;SDS011;2901;42.140;24.760;2022-08-19T09:27:45;10.40;;;5.20;;
5752;SDS011;2901;42.140;24.760;2022-08-19T09:30:12;4.18;;;3.88;;
5752;SDS011;2901;42.140;24.760;2022-08-19T09:32:43;4.68;;;4.28;;
5752;SDS011;2901;42.140;24.760;2022-08-19T09:35:10;6.25;;;4.95;;
5752;SDS011;2901;42.140;24.760;2022-08-19T09:37:37;5.28;;;4.78;;
5752;SDS011;2901;42.140;24.760;2022-08-19T09:40:03;5.93;;;4.63;;
5752;SDS011;2901;42.140;24.760;2022-08-19T09:42:29;6.97;;;4.97;;
5752;SDS011;2901;42.140;24.760;2022-08-19T09:44:54;4.65;;;4.45;;
5752;SDS011;2901;42.140;24.760;2022-08-19T09:47:20;5.43;;;5.13;;
5752;SDS011;2901;42.140;24.760;2022-08-19T09:49:45;4.90;;;4.60;;
5752;SDS011;2901;42.140;24.760;2022-08-19T09:52:13;5.38;;;4.93;;
5752;SDS011;2901;42.140;24.760;2022-08-19T09:54:40;5.25;;;4.95;;
5752;SDS011;2901;42.140;24.760;2022-08-19T09:57:06;6.65;;;4.13;;
5752;SDS011;2901;42.140;24.760;2022-08-19T09:59:31;6.63;;;4.45;;
5752;SDS011;2901;42.140;24.760;2022-08-19T10:01:57;4.40;;;4.03;;
5752;SDS011;2901;42.140;24.760;2022-08-19T10:04:23;4.15;;;3.92;;
5752;SDS011;2901;42.140;24.760;2022-08-19T10:07:08;5.20;;;4.85;;
5752;SDS011;2901;42.140;24.760;2022-08-19T10:09:34;5.70;;;4.72;;
5752;SDS011;2901;42.140;24.760;2022-08-19T10:11:59;4.95;;;4.75;;
5752;SDS011;2901;42.140;24.760;2022-08-19T10:14:25;5.40;;;5.00;;
5752;SDS011;2901;42.140;24.760;2022-08-19T10:16:52;6.43;;;4.63;;
5752;SDS011;2901;42.140;24.760;2022-08-19T10:19:17;4.70;;;4.40;;
5752;SDS011;2901;42.140;24.760;2022-08-19T10:21:45;4.45;;;4.18;;
5752;SDS011;2901;42.140;24.760;2022-08-19T10:24:10;6.55;;;5.03;;
5752;SDS011;2901;42.140;24.760;2022-08-19T10:26:37;10.77;;;4.95;;
5752;SDS011;2901;42.140;24.760;2022-08-19T10:29:06;5.43;;;4.85;;
5752;SDS011;2901;42.140;24.760;2022-08-19T10:31:33;8.00;;;5.20;;
5752;SDS011;2901;42.140;24.760;2022-08-19T10:33:59;5.05;;;4.70;;
5752;SDS011;2901;42.140;24.760;2022-08-19T10:36:26;4.25;;;4.05;;
5752;SDS011;2901;42.140;24.760;2022-08-19T10:38:58;4.25;;;4.05;;
5752;SDS011;2901;42.140;24.760;2022-08-19T10:41:27;6.20;;;4.75;;
5752;SDS011;2901;42.140;24.760;2022-08-19T10:43:56;5.15;;;4.72;;
5752;SDS011;2901;42.140;24.760;2022-08-19T10:46:24;5.13;;;4.72;;
5752;SDS011;2901;42.140;24.760;2022-08-19T10:48:51;5.10;;;4.80;;
5752;SDS011;2901;42.140;24.760;2022-08-19T10:51:18;5.00;;;4.60;;
5752;SDS011;2901;42.140;24.760;2022-08-19T10:54:02;4.97;;;4.68;;
5752;SDS011;2901;42.140;24.760;2022-08-19T10:56:29;6.93;;;4.32;;
5752;SDS011;2901;42.140;24.760;2022-08-19T10:59:13;4.78;;;4.10;;
5752;SDS011;2901;42.140;24.760;2022-08-19T11:01:40;5.03;;;4.60;;
5752;SDS011;2901;42.140;24.760;2022-08-19T11:04:07;5.28;;;4.78;;
5752;SDS011;2901;42.140;24.760;2022-08-19T11:06:36;4.68;;;4.35;;
5752;SDS011;2901;42.140;24.760;2022-08-19T11:09:04;4.60;;;3.90;;
5752;SDS011;2901;42.140;24.760;2022-08-19T11:11:30;5.32;;;4.28;;
5752;SDS011;2901;42.140;24.760;2022-08-19T11:13:57;4.82;;;4.50;;
5752;SDS011;2901;42.140;24.760;2022-08-19T11:16:24;3.55;;;3.25;;
5752;SDS011;2901;42.140;24.760;2022-08-19T11:18:52;4.40;;;3.75;;
5752;SDS011;2901;42.140;24.760;2022-08-19T11:21:30;3.90;;;3.58;;
5752;SDS011;2901;42.140;24.760;2022-08-19T11:23:59;4.32;;;4.10;;
5752;SDS011;2901;42.140;24.760;2022-08-19T11:26:27;4.00;;;3.67;;
5752;SDS011;2901;42.140;24.760;2022-08-19T11:28:53;3.80;;;3.50;;
5752;SDS011;2901;42.140;24.760;2022-08-19T11:31:21;3.92;;;3.42;;
5752;SDS011;2901;42.140;24.760;2022-08-19T11:33:49;4.65;;;4.15;;
5752;SDS011;2901;42.140;24.760;2022-08-19T11:36:16;4.22;;;3.80;;
5752;SDS011;2901;42.140;24.760;2022-08-19T11:38:42;4.40;;;3.97;;
5752;SDS011;2901;42.140;24.760;2022-08-19T11:41:09;4.07;;;3.63;;
5752;SDS011;2901;42.140;24.760;2022-08-19T11:43:35;9.80;;;4.57;;
5752;SDS011;2901;42.140;24.760;2022-08-19T11:46:08;5.10;;;4.70;;
5752;SDS011;2901;42.140;24.760;2022-08-19T11:48:36;4.45;;;4.25;;
5752;SDS011;2901;42.140;24.760;2022-08-19T11:51:03;4.47;;;4.28;;
5752;SDS011;2901;42.140;24.760;2022-08-19T11:53:31;4.20;;;3.97;;
5752;SDS011;2901;42.140;24.760;2022-08-19T11:55:58;4.38;;;4.07;;
5752;SDS011;2901;42.140;24.760;2022-08-19T11:58:23;4.22;;;3.92;;
5752;SDS011;2901;42.140;24.760;2022-08-19T12:00:49;4.22;;;3.88;;
5752;SDS011;2901;42.140;24.760;2022-08-19T12:03:15;6.35;;;4.43;;
5752;SDS011;2901;42.140;24.760;2022-08-19T12:05:41;4.65;;;4.25;;
5752;SDS011;2901;42.140;24.760;2022-08-19T12:08:07;4.90;;;4.50;;
5752;SDS011;2901;42.140;24.760;2022-08-19T12:10:33;7.57;;;4.18;;
5752;SDS011;2901;42.140;24.760;2022-08-19T12:12:59;4.07;;;3.88;;
5752;SDS011;2901;42.140;24.760;2022-08-19T12:15:26;4.88;;;4.55;;
5752;SDS011;2901;42.140;24.760;2022-08-19T12:17:53;5.25;;;4.85;;
5752;SDS011;2901;42.140;24.760;2022-08-19T12:20:22;4.22;;;3.92;;
5752;SDS011;2901;42.140;24.760;2022-08-19T12:22:48;5.22;;;4.22;;
5752;SDS011;2901;42.140;24.760;2022-08-19T12:25:15;4.57;;;4.07;;
5752;SDS011;2901;42.140;24.760;2022-08-19T12:27:40;4.13;;;3.90;;
5752;SDS011;2901;42.140;24.760;2022-08-19T12:30:06;4.20;;;3.90;;
5752;SDS011;2901;42.140;24.760;2022-08-19T12:32:34;7.53;;;4.55;;
5752;SDS011;2901;42.140;24.760;2022-08-19T12:34:59;10.00;;;4.40;;
5752;SDS011;2901;42.140;24.760;2022-08-19T12:37:25;7.68;;;4.18;;
5752;SDS011;2901;42.140;24.760;2022-08-19T12:39:50;8.35;;;4.10;;
5752;SDS011;2901;42.140;24.760;2022-08-19T12:42:15;7.43;;;4.65;;
5752;SDS011;2901;42.140;24.760;2022-08-19T12:44:43;4.38;;;4.05;;
5752;SDS011;2901;42.140;24.760;2022-08-19T12:47:09;4.60;;;4.30;;
5752;SDS011;2901;42.140;24.760;2022-08-19T12:49:37;4.97;;;4.07;;
5752;SDS011;2901;42.140;24.760;2022-08-19T12:52:04;4.30;;;3.97;;
5752;SDS011;2901;42.140;24.760;2022-08-19T12:54:32;5.03;;;4.10;;
5752;SDS011;2901;42.140;24.760;2022-08-19T12:56:57;5.00;;;4.60;;
5752;SDS011;2901;42.140;24.760;2022-08-19T12:59:24;9.20;;;4.60;;
5752;SDS011;2901;42.140;24.760;2022-08-19T13:01:50;4.90;;;4.50;;
5752;SDS011;2901;42.140;24.760;2022-08-19T13:04:15;4.55;;;4.22;;
5752;SDS011;2901;42.140;24.760;2022-08-19T13:06:41;3.92;;;3.80;;
5752;SDS011;2901;42.140;24.760;2022-08-19T13:09:07;4.47;;;4.28;;
5752;SDS011;2901;42.140;24.760;2022-08-19T13:11:33;5.55;;;5.32;;
5752;SDS011;2901;42.140;24.760;2022-08-19T13:13:59;4.28;;;3.78;;
5752;SDS011;2901;42.140;24.760;2022-08-19T13:16:26;5.38;;;4.15;;
5752;SDS011;2901;42.140;24.760;2022-08-19T13:18:53;4.22;;;3.85;;
5752;SDS011;2901;42.140;24.760;2022-08-19T13:21:20;4.55;;;4.15;;
5752;SDS011;2901;42.140;24.760;2022-08-19T13:23:48;4.13;;;3.92;;
5752;SDS011;2901;42.140;24.760;2022-08-19T13:26:14;7.10;;;4.00;;
5752;SDS011;2901;42.140;24.760;2022-08-19T13:28:40;4.45;;;3.90;;
5752;SDS011;2901;42.140;24.760;2022-08-19T13:31:26;4.95;;;4.22;;
5752;SDS011;2901;42.140;24.760;2022-08-19T13:34:11;4.68;;;4.07;;
5752;SDS011;2901;42.140;24.760;2022-08-19T13:36:37;4.30;;;4.05;;
5752;SDS011;2901;42.140;24.760;2022-08-19T13:39:04;4.00;;;3.78;;
5752;SDS011;2901;42.140;24.760;2022-08-19T13:41:32;5.63;;;4.28;;
5752;SDS011;2901;42.140;24.760;2022-08-19T13:43:58;4.97;;;4.70;;
5752;SDS011;2901;42.140;24.760;2022-08-19T13:46:24;4.35;;;3.78;;
5752;SDS011;2901;42.140;24.760;2022-08-19T13:48:49;4.47;;;3.90;;
5752;SDS011;2901;42.140;24.760;2022-08-19T13:51:15;4.85;;;4.55;;
5752;SDS011;2901;42.140;24.760;2022-08-19T13:53:42;5.68;;;3.85;;
5752;SDS011;2901;42.140;24.760;2022-08-19T13:56:10;4.45;;;4.05;;
5752;SDS011;2901;42.140;24.760;2022-08-19T13:58:38;4.20;;;3.60;;
5752;SDS011;2901;42.140;24.760;2022-08-19T14:01:04;4.50;;;4.10;;
5752;SDS011;2901;42.140;24.760;2022-08-19T14:03:31;4.20;;;4.00;;
5752;SDS011;2901;42.140;24.760;2022-08-19T14:05:58;5.10;;;4.38;;
5752;SDS011;2901;42.140;24.760;2022-08-19T14:08:24;3.80;;;3.60;;
5752;SDS011;2901;42.140;24.760;2022-08-19T14:10:52;3.92;;;3.63;;
5752;SDS011;2901;42.140;24.760;2022-08-19T14:13:19;5.10;;;3.95;;
5752;SDS011;2901;42.140;24.760;2022-08-19T14:15:46;3.95;;;3.85;;
5752;SDS011;2901;42.140;24.760;2022-08-19T14:18:13;4.53;;;4.10;;
5752;SDS011;2901;42.140;24.760;2022-08-19T14:20:39;4.50;;;4.30;;
5752;SDS011;2901;42.140;24.760;2022-08-19T14:23:05;3.85;;;3.53;;
5752;SDS011;2901;42.140;24.760;2022-08-19T14:25:31;5.57;;;4.63;;
5752;SDS011;2901;42.140;24.760;2022-08-19T14:27:57;4.13;;;3.92;;
5752;SDS011;2901;42.140;24.760;2022-08-19T14:30:30;6.35;;;4.20;;
5752;SDS011;2901;42.140;24.760;2022-08-19T14:32:58;5.57;;;4.85;;
5752;SDS011;2901;42.140;24.760;2022-08-19T14:35:25;5.15;;;4.72;;
5752;SDS011;2901;42.140;24.760;2022-08-19T14:37:54;4.78;;;4.47;;
5752;SDS011;2901;42.140;24.760;2022-08-19T14:40:21;3.85;;;3.75;;
5752;SDS011;2901;42.140;24.760;2022-08-19T14:42:56;6.07;;;4.22;;
5752;SDS011;2901;42.140;24.760;2022-08-19T14:45:25;4.25;;;4.05;;
5752;SDS011;2901;42.140;24.760;2022-08-19T14:47:52;4.60;;;4.22;;
5752;SDS011;2901;42.140;24.760;2022-08-19T14:50:18;9.90;;;5.72;;
5752;SDS011;2901;42.140;24.760;2022-08-19T14:52:45;5.43;;;4.80;;
5752;SDS011;2901;42.140;24.760;2022-08-19T14:55:12;5.70;;;4.10;;
5752;SDS011;2901;42.140;24.760;2022-08-19T14:57:40;4.38;;;4.10;;
5752;SDS011;2901;42.140;24.760;2022-08-19T15:00:06;4.05;;;3.85;;
5752;SDS011;2901;42.140;24.760;2022-08-19T15:02:32;4.03;;;3.83;;
5752;SDS011;2901;42.140;24.760;2022-08-19T15:04:58;4.65;;;4.10;;
5752;SDS011;2901;42.140;24.760;2022-08-19T15:07:23;6.47;;;4.78;;
5752;SDS011;2901;42.140;24.760;2022-08-19T15:09:49;8.05;;;4.50;;
5752;SDS011;2901;42.140;24.760;2022-08-19T15:12:15;4.55;;;4.25;;
5752;SDS011;2901;42.140;24.760;2022-08-19T15:14:41;4.07;;;3.88;;
5752;SDS011;2901;42.140;24.760;2022-08-19T15:17:14;5.82;;;4.88;;